createdAt,value
2018-09-13T00:00:19.760Z,25.73
2018-09-13T00:02:48.008Z,27.10
2018-09-13T00:05:16.222Z,28.37
2018-09-13T00:07:44.419Z,25.30
2018-09-13T00:10:12.595Z,25.33
2018-09-13T00:12:40.784Z,24.23
2018-09-13T00:15:08.980Z,26.77
2018-09-13T00:17:37.163Z,25.67
2018-09-13T00:20:05.581Z,26.57
2018-09-13T00:22:33.763Z,26.87
2018-09-13T00:25:01.951Z,25.87
2018-09-13T00:27:30.134Z,25.97
2018-09-13T00:29:58.372Z,25.87
2018-09-13T00:32:26.554Z,24.80
2018-09-13T00:34:54.864Z,24.80
2018-09-13T00:37:23.063Z,23.63
2018-09-13T00:39:51.276Z,25.27
2018-09-13T00:42:19.471Z,23.57
2018-09-13T00:44:47.661Z,24.63
2018-09-13T00:47:15.870Z,25.60
2018-09-13T00:49:44.279Z,26.17
2018-09-13T00:52:12.467Z,25.27
2018-09-13T00:54:40.648Z,26.60
2018-09-13T00:57:09.098Z,26.17
2018-09-13T00:59:37.286Z,25.73
2018-09-13T01:02:05.612Z,25.07
2018-09-13T01:04:33.886Z,24.63
2018-09-13T01:07:02.095Z,25.17
2018-09-13T01:09:30.288Z,26.90
2018-09-13T01:11:58.503Z,27.43
2018-09-13T01:14:26.690Z,26.93
2018-09-13T01:16:54.883Z,27.10
2018-09-13T01:19:23.072Z,27.23
2018-09-13T01:21:51.254Z,28.13
2018-09-13T01:24:19.438Z,29.13
2018-09-13T01:26:47.658Z,28.60
2018-09-13T01:29:15.822Z,29.37
2018-09-13T01:31:44.015Z,28.70
2018-09-13T01:34:12.224Z,29.03
2018-09-13T01:36:40.403Z,27.93
2018-09-13T01:39:09.648Z,28.47
2018-09-13T01:41:38.124Z,28.70
2018-09-13T01:44:06.447Z,27.67
2018-09-13T01:46:34.649Z,28.53
2018-09-13T01:49:02.831Z,28.93
2018-09-13T01:51:31.003Z,27.70
2018-09-13T01:53:59.196Z,29.30
2018-09-13T01:56:27.386Z,28.10
2018-09-13T01:58:55.663Z,28.20
2018-09-13T02:01:23.866Z,28.43
2018-09-13T02:03:52.119Z,29.57
2018-09-13T02:06:20.318Z,29.67
2018-09-13T02:08:48.523Z,29.70
2018-09-13T02:11:16.718Z,31.53
2018-09-13T02:13:44.901Z,29.17
2018-09-13T02:16:13.095Z,29.17
2018-09-13T02:18:41.303Z,29.77
2018-09-13T02:21:09.523Z,29.13
2018-09-13T02:23:37.704Z,27.27
2018-09-13T02:26:05.990Z,29.70
2018-09-13T02:28:34.193Z,30.93
2018-09-13T02:31:02.375Z,31.63
2018-09-13T02:33:30.551Z,31.63
2018-09-13T02:35:58.747Z,29.53
2018-09-13T02:38:26.934Z,30.03
2018-09-13T02:40:55.135Z,31.33
2018-09-13T02:43:23.336Z,29.67
2018-09-13T02:45:51.511Z,29.90
2018-09-13T02:48:19.741Z,32.57
2018-09-13T02:50:47.931Z,31.03
2018-09-13T02:53:16.114Z,32.47
2018-09-13T02:55:44.308Z,32.70
2018-09-13T02:58:12.495Z,32.20
2018-09-13T03:00:41.223Z,34.57
2018-09-13T03:03:09.427Z,34.83
2018-09-13T03:05:37.623Z,34.47
2018-09-13T03:08:05.856Z,33.50
2018-09-13T03:10:33.998Z,34.60
2018-09-13T03:13:02.222Z,34.83
2018-09-13T03:15:30.424Z,32.03
2018-09-13T03:17:58.630Z,34.27
2018-09-13T03:20:26.819Z,33.13
2018-09-13T03:22:55.053Z,33.07
2018-09-13T03:25:23.244Z,34.07
2018-09-13T03:27:51.736Z,34.77
2018-09-13T03:30:20.007Z,35.20
2018-09-13T03:32:48.235Z,35.13
2018-09-13T03:35:16.435Z,35.10
2018-09-13T03:37:44.642Z,34.47
2018-09-13T03:40:12.895Z,34.00
2018-09-13T03:42:41.089Z,33.87
2018-09-13T03:45:09.271Z,35.43
2018-09-13T03:47:37.451Z,37.87
2018-09-13T03:50:05.748Z,36.60
2018-09-13T03:52:33.931Z,36.97
2018-09-13T03:55:02.116Z,36.13
2018-09-13T03:57:30.321Z,36.77
2018-09-13T03:59:58.531Z,35.20
2018-09-13T04:02:26.712Z,36.93
2018-09-13T04:04:54.895Z,34.40
2018-09-13T04:07:23.091Z,35.57
2018-09-13T04:09:51.283Z,34.40
2018-09-13T04:12:19.471Z,34.03
2018-09-13T04:14:47.643Z,32.10
2018-09-13T04:17:15.831Z,32.10
2018-09-13T04:19:45.824Z,30.00
2018-09-13T04:22:14.932Z,29.83
2018-09-13T04:24:43.710Z,28.87
2018-09-13T04:27:11.999Z,29.97
2018-09-13T04:29:40.358Z,27.73
2018-09-13T04:32:08.548Z,29.00
2018-09-13T04:34:36.723Z,26.77
2018-09-13T04:37:05.055Z,26.03
2018-09-13T04:39:33.235Z,25.40
2018-09-13T04:42:01.416Z,26.13
2018-09-13T04:44:29.591Z,24.60
2018-09-13T04:46:57.772Z,23.00
2018-09-13T04:49:25.955Z,23.30
2018-09-13T04:51:54.176Z,23.37
2018-09-13T04:54:22.371Z,23.20
2018-09-13T04:56:51.645Z,23.57
2018-09-13T04:59:19.834Z,23.57
2018-09-13T05:01:48.071Z,23.27
2018-09-13T05:04:16.260Z,22.40
2018-09-13T05:06:44.461Z,22.90
2018-09-13T05:09:13.927Z,21.20
2018-09-13T05:11:42.162Z,21.20
2018-09-13T05:14:10.435Z,21.93
2018-09-13T05:16:38.673Z,22.10
2018-09-13T05:19:06.883Z,22.57
2018-09-13T05:21:35.125Z,22.80
2018-09-13T05:24:03.392Z,22.03
2018-09-13T05:26:31.676Z,22.73
2018-09-13T05:28:59.879Z,24.30
2018-09-13T05:31:28.169Z,23.33
2018-09-13T05:33:56.395Z,23.60
2018-09-13T05:36:24.671Z,23.87
2018-09-13T05:38:52.976Z,24.30
2018-09-13T05:41:21.152Z,25.50
2018-09-13T05:43:49.423Z,24.17
2018-09-13T05:46:17.650Z,23.47
2018-09-13T05:48:45.943Z,22.70
2018-09-13T05:51:14.235Z,22.60
2018-09-13T05:53:42.412Z,22.47
2018-09-13T05:56:10.595Z,22.40
2018-09-13T05:58:38.796Z,23.10
2018-09-13T06:01:06.991Z,22.90
2018-09-13T06:03:35.184Z,22.00
2018-09-13T06:06:03.366Z,21.43
2018-09-13T06:08:31.549Z,21.70
2018-09-13T06:10:59.743Z,21.60
2018-09-13T06:13:27.966Z,22.47
2018-09-13T06:15:56.121Z,22.13
2018-09-13T06:18:24.288Z,22.30
2018-09-13T06:20:52.512Z,20.20
2018-09-13T06:23:20.704Z,20.73
2018-09-13T06:25:48.918Z,22.03
2018-09-13T06:28:17.151Z,21.70
2018-09-13T06:30:45.342Z,22.17
2018-09-13T06:33:13.543Z,20.37
2018-09-13T06:35:41.732Z,21.33
2018-09-13T06:38:09.985Z,22.33
2018-09-13T06:40:38.168Z,22.93
2018-09-13T06:43:06.392Z,22.53
2018-09-13T06:45:34.580Z,22.77
2018-09-13T06:48:02.775Z,22.50
2018-09-13T06:50:30.964Z,23.13
2018-09-13T06:52:59.166Z,23.17
2018-09-13T06:55:27.361Z,22.37
2018-09-13T06:57:55.528Z,22.40
2018-09-13T07:00:23.720Z,24.93
2018-09-13T07:02:51.910Z,24.40
2018-09-13T07:05:20.099Z,24.60
2018-09-13T07:07:48.316Z,24.60
2018-09-13T07:10:16.525Z,25.60
2018-09-13T07:12:44.721Z,26.30
2018-09-13T07:15:12.916Z,24.80
2018-09-13T07:17:41.083Z,26.20
2018-09-13T07:20:09.279Z,27.33
2018-09-13T07:22:37.804Z,25.23
2018-09-13T07:25:06.148Z,25.60
2018-09-13T07:27:34.479Z,24.97
2018-09-13T07:30:03.116Z,27.00
2018-09-13T07:32:31.415Z,23.93
2018-09-13T07:34:59.668Z,24.30
2018-09-13T07:37:28.298Z,24.00
2018-09-13T07:39:56.560Z,23.23
2018-09-13T07:42:24.822Z,24.00
2018-09-13T07:44:53.013Z,22.83
2018-09-13T07:47:21.311Z,23.13
2018-09-13T07:49:49.706Z,22.43
2018-09-13T07:52:17.808Z,21.93
2018-09-13T07:54:46.177Z,22.20
2018-09-13T07:57:14.468Z,21.90
2018-09-13T07:59:42.774Z,19.73
2018-09-13T08:02:11.099Z,19.87
2018-09-13T08:04:39.536Z,21.73
2018-09-13T08:07:07.808Z,21.37
2018-09-13T08:09:36.053Z,20.53
2018-09-13T08:12:04.384Z,20.80
2018-09-13T08:14:32.520Z,23.10
2018-09-13T08:17:00.763Z,24.47
2018-09-13T08:19:29.094Z,23.47
2018-09-13T08:21:57.322Z,23.57
2018-09-13T08:24:25.511Z,22.40
2018-09-13T08:26:53.685Z,24.00
2018-09-13T08:29:21.883Z,23.87
2018-09-13T08:31:50.076Z,23.60
2018-09-13T08:34:18.272Z,24.73
2018-09-13T08:36:46.459Z,24.60
2018-09-13T08:39:14.635Z,24.40
2018-09-13T08:41:42.827Z,24.80
2018-09-13T08:44:11.019Z,23.33
2018-09-13T08:46:39.257Z,24.37
2018-09-13T08:49:07.449Z,22.87
2018-09-13T08:51:35.639Z,24.10
2018-09-13T08:54:03.865Z,21.33
2018-09-13T08:56:32.047Z,23.40
2018-09-13T08:59:00.239Z,22.10
2018-09-13T09:01:28.892Z,20.07
2018-09-13T09:03:57.080Z,21.63
2018-09-13T09:06:25.302Z,21.70
2018-09-13T09:08:53.464Z,21.03
2018-09-13T09:11:21.655Z,20.20
2018-09-13T09:13:49.831Z,22.57
2018-09-13T09:16:18.030Z,22.70
2018-09-13T09:18:46.219Z,23.87
2018-09-13T09:21:14.456Z,22.47
2018-09-13T09:23:42.652Z,23.80
2018-09-13T09:26:10.831Z,23.30
2018-09-13T09:28:39.130Z,25.17
2018-09-13T09:31:07.349Z,24.40
2018-09-13T09:33:35.691Z,23.83
2018-09-13T09:36:03.888Z,23.03
2018-09-13T09:38:32.099Z,22.40
2018-09-13T09:41:00.312Z,20.70
2018-09-13T09:43:28.491Z,20.00
2018-09-13T09:45:56.681Z,19.20
2018-09-13T09:48:24.874Z,19.30
2018-09-13T09:50:53.099Z,18.70
2018-09-13T09:53:21.279Z,17.47
2018-09-13T09:55:49.472Z,17.50
2018-09-13T09:58:17.661Z,18.47
2018-09-13T10:00:51.104Z,18.13
2018-09-13T10:03:19.355Z,18.13
2018-09-13T10:05:47.602Z,16.90
2018-09-13T10:08:15.748Z,16.17
2018-09-13T10:10:43.935Z,16.13
2018-09-13T10:13:12.111Z,16.60
2018-09-13T10:15:45.712Z,17.03
2018-09-13T10:18:19.158Z,18.10
2018-09-13T10:20:52.675Z,18.50
2018-09-13T10:23:26.123Z,17.20
2018-09-13T10:25:59.568Z,18.00
2018-09-13T10:28:33.225Z,18.40
2018-09-13T10:31:06.522Z,17.80
2018-09-13T10:33:40.134Z,18.60
2018-09-13T10:36:13.662Z,20.30
2018-09-13T10:38:47.096Z,18.40
2018-09-13T10:41:20.536Z,19.80
2018-09-13T10:43:53.845Z,19.13
2018-09-13T10:46:23.935Z,20.00
2018-09-13T10:48:57.596Z,20.47
2018-09-13T10:51:31.014Z,20.30
2018-09-13T10:53:59.284Z,19.47
2018-09-13T10:56:27.948Z,19.20
2018-09-13T10:58:56.124Z,17.77
2018-09-13T11:01:24.318Z,18.43
2018-09-13T11:03:53.040Z,19.87
2018-09-13T11:06:21.176Z,18.70
2018-09-13T11:08:49.363Z,19.50
2018-09-13T11:11:17.606Z,20.97
2018-09-13T11:14:01.750Z,20.93
2018-09-13T11:16:29.960Z,21.93
2018-09-13T11:18:58.156Z,24.23
2018-09-13T11:21:26.343Z,25.00
2018-09-13T11:23:54.538Z,23.47
2018-09-13T11:26:22.724Z,22.80
2018-09-13T11:28:50.967Z,24.33
2018-09-13T11:31:19.132Z,24.57
2018-09-13T11:33:47.332Z,25.00
2018-09-13T11:36:15.508Z,24.93
2018-09-13T11:38:43.696Z,26.57
2018-09-13T11:41:11.920Z,26.70
2018-09-13T11:43:40.114Z,27.47
2018-09-13T11:46:08.330Z,27.23
2018-09-13T11:48:36.529Z,24.87
2018-09-13T11:51:04.743Z,27.37
2018-09-13T11:53:32.915Z,25.67
2018-09-13T11:56:01.093Z,27.50
2018-09-13T11:58:29.269Z,29.13
2018-09-13T12:00:57.464Z,27.47
2018-09-13T12:03:25.654Z,25.90
2018-09-13T12:05:53.848Z,26.93
2018-09-13T12:08:22.024Z,23.87
2018-09-13T12:10:50.186Z,27.10
2018-09-13T12:13:18.374Z,26.67
2018-09-13T12:15:46.538Z,26.10
2018-09-13T12:18:14.739Z,26.03
2018-09-13T12:20:42.903Z,24.83
2018-09-13T12:23:11.088Z,25.13
2018-09-13T12:25:39.251Z,23.40
2018-09-13T12:28:07.472Z,23.17
2018-09-13T12:30:35.652Z,23.33
2018-09-13T12:33:03.846Z,22.70
2018-09-13T12:35:32.010Z,23.03
2018-09-13T12:38:00.179Z,25.90
2018-09-13T12:40:28.421Z,26.50
2018-09-13T12:42:56.599Z,25.53
2018-09-13T12:45:24.799Z,26.30
2018-09-13T12:47:52.979Z,26.20
2018-09-13T12:50:21.172Z,25.57
2018-09-13T12:52:49.352Z,26.73
2018-09-13T12:55:17.548Z,26.90
2018-09-13T12:57:45.735Z,25.40
2018-09-13T13:00:13.920Z,26.40
2018-09-13T13:02:42.135Z,27.07
2018-09-13T13:05:10.314Z,25.90
2018-09-13T13:07:38.511Z,26.00
2018-09-13T13:10:06.679Z,25.20
2018-09-13T13:12:34.867Z,26.13
2018-09-13T13:15:09.567Z,24.07
2018-09-13T13:17:37.771Z,23.97
2018-09-13T13:20:06.151Z,26.23
2018-09-13T13:22:34.336Z,25.57
2018-09-13T13:25:02.516Z,24.60
2018-09-13T13:27:30.697Z,25.10
2018-09-13T13:29:58.900Z,23.70
2018-09-13T13:32:27.076Z,23.10
2018-09-13T13:34:55.251Z,24.40
2018-09-13T13:37:23.427Z,24.07
2018-09-13T13:39:51.624Z,24.80
2018-09-13T13:42:19.831Z,27.53
2018-09-13T13:44:48.008Z,24.53
2018-09-13T13:47:16.179Z,25.70
2018-09-13T13:49:44.359Z,24.20
2018-09-13T13:52:12.537Z,25.00
2018-09-13T13:54:40.746Z,26.30
2018-09-13T13:57:08.919Z,26.80
2018-09-13T13:59:37.128Z,25.43
2018-09-13T14:02:05.310Z,25.70
2018-09-13T14:04:33.687Z,24.70
2018-09-13T14:07:01.859Z,23.97
2018-09-13T14:09:30.045Z,24.87
2018-09-13T14:11:58.210Z,24.33
2018-09-13T14:14:26.436Z,25.97
2018-09-13T14:16:54.615Z,24.73
2018-09-13T14:19:22.887Z,25.13
2018-09-13T14:21:51.080Z,24.77
2018-09-13T14:24:19.263Z,25.03
2018-09-13T14:26:47.447Z,25.00
2018-09-13T14:29:15.692Z,25.70
2018-09-13T14:31:43.868Z,26.80
2018-09-13T14:34:12.044Z,24.87
2018-09-13T14:36:40.263Z,25.13
2018-09-13T14:39:10.035Z,25.37
2018-09-13T14:41:38.271Z,24.73
2018-09-13T14:44:06.690Z,24.73
2018-09-13T14:46:35.488Z,22.17
2018-09-13T14:49:03.856Z,21.63
2018-09-13T14:51:32.112Z,21.97
2018-09-13T14:54:00.308Z,23.40
2018-09-13T14:56:28.788Z,21.80
2018-09-13T14:58:56.971Z,21.03
2018-09-13T15:01:25.142Z,21.17
2018-09-13T15:03:53.335Z,21.40
2018-09-13T15:06:21.512Z,18.83
2018-09-13T15:08:49.695Z,18.00
2018-09-13T15:11:18.555Z,20.30
2018-09-13T15:13:46.807Z,18.53
2018-09-13T15:16:16.549Z,19.03
2018-09-13T15:18:44.846Z,19.40
2018-09-13T15:21:14.529Z,17.50
2018-09-13T15:23:44.803Z,18.73
2018-09-13T15:26:13.055Z,17.60
2018-09-13T15:28:42.594Z,17.43
2018-09-13T15:31:10.935Z,17.90
2018-09-13T15:33:39.142Z,18.63
2018-09-13T15:36:09.590Z,18.80
2018-09-13T15:38:37.911Z,20.33
2018-09-13T15:41:06.320Z,18.77
2018-09-13T15:43:35.634Z,18.10
2018-09-13T15:46:03.828Z,18.73
2018-09-13T15:48:32.179Z,19.33
2018-09-13T15:51:01.410Z,18.33
2018-09-13T15:53:29.866Z,19.70
2018-09-13T15:55:58.166Z,19.73
2018-09-13T15:58:26.570Z,18.77
2018-09-13T16:00:54.784Z,18.87
2018-09-13T16:03:23.197Z,20.27
2018-09-13T16:05:52.050Z,22.50
2018-09-13T16:08:20.403Z,21.50
2018-09-13T16:10:48.682Z,21.53
2018-09-13T16:13:18.843Z,23.60
2018-09-13T16:15:48.142Z,23.53
2018-09-13T16:18:16.460Z,23.17
2018-09-13T16:20:44.776Z,22.90
2018-09-13T16:23:13.411Z,21.37
2018-09-13T16:25:42.832Z,22.30
2018-09-13T16:28:11.134Z,21.27
2018-09-13T16:30:39.527Z,21.53
2018-09-13T16:33:08.937Z,21.60
2018-09-13T16:35:46.281Z,18.80
2018-09-13T16:38:19.807Z,19.30
2018-09-13T16:40:53.356Z,20.20
2018-09-13T16:43:26.743Z,20.20
2018-09-13T16:45:54.934Z,21.30
2018-09-13T16:48:27.283Z,21.97
2018-09-13T16:50:55.467Z,20.00
2018-09-13T16:53:23.660Z,20.40
2018-09-13T16:55:51.844Z,20.73
2018-09-13T16:58:20.015Z,19.60
2018-09-13T17:00:48.195Z,20.83
2018-09-13T17:03:16.391Z,21.23
2018-09-13T17:05:44.699Z,19.67
2018-09-13T17:08:12.904Z,21.10
2018-09-13T17:10:41.334Z,20.90
2018-09-13T17:13:09.664Z,21.60
2018-09-13T17:15:38.139Z,20.80
2018-09-13T17:18:06.319Z,20.37
2018-09-13T17:20:34.655Z,22.57
2018-09-13T17:23:02.874Z,20.50
2018-09-13T17:25:31.048Z,21.47
2018-09-13T17:27:59.234Z,20.40
2018-09-13T17:30:27.456Z,20.70
2018-09-13T17:32:55.643Z,20.50
2018-09-13T17:35:23.823Z,19.90
2018-09-13T17:37:52.007Z,20.50
2018-09-13T17:40:20.928Z,18.80
2018-09-13T17:42:49.301Z,19.33
2018-09-13T17:45:17.549Z,19.07
2018-09-13T17:47:46.655Z,19.87
2018-09-13T17:50:15.108Z,19.80
2018-09-13T17:52:43.407Z,21.17
2018-09-13T17:55:12.555Z,20.50
2018-09-13T17:57:40.806Z,20.53
2018-09-13T18:00:11.700Z,20.63
2018-09-13T18:02:39.984Z,21.50
2018-09-13T18:05:08.277Z,22.57
2018-09-13T18:07:36.542Z,22.53
2018-09-13T18:10:05.240Z,21.10
2018-09-13T18:12:34.559Z,21.83
2018-09-13T18:15:03.049Z,21.53
2018-09-13T18:17:31.219Z,22.27
2018-09-13T18:19:59.417Z,21.53
2018-09-13T18:22:27.852Z,21.27
2018-09-13T18:24:56.110Z,22.80
2018-09-13T18:27:25.387Z,21.90
2018-09-13T18:29:53.618Z,23.60
2018-09-13T18:32:22.617Z,23.53
2018-09-13T18:34:51.622Z,23.53
2018-09-13T18:37:19.823Z,23.40
2018-09-13T18:39:48.002Z,23.20
2018-09-13T18:42:16.234Z,22.77
2018-09-13T18:44:45.560Z,23.00
2018-09-13T18:47:14.263Z,24.03
2018-09-13T18:49:43.027Z,24.10
2018-09-13T18:52:11.245Z,23.30
2018-09-13T18:54:39.888Z,24.60
2018-09-13T18:57:09.647Z,24.30
2018-09-13T18:59:38.281Z,24.50
2018-09-13T19:02:06.553Z,24.57
2018-09-13T19:04:34.890Z,24.90
2018-09-13T19:07:03.927Z,25.00
2018-09-13T19:09:32.198Z,23.90
2018-09-13T19:12:00.526Z,24.33
2018-09-13T19:14:28.751Z,26.77
2018-09-13T19:16:57.062Z,26.07
2018-09-13T19:19:26.444Z,26.20
2018-09-13T19:21:54.636Z,25.30
2018-09-13T19:24:22.936Z,26.87
2018-09-13T19:26:51.782Z,27.70
2018-09-13T19:29:20.011Z,28.23
2018-09-13T19:31:48.271Z,27.93
2018-09-13T19:34:16.614Z,27.10
2018-09-13T19:36:45.798Z,27.60
2018-09-13T19:39:14.207Z,28.80
2018-09-13T19:41:43.794Z,26.40
2018-09-13T19:44:12.100Z,29.70
2018-09-13T19:46:40.321Z,27.33
2018-09-13T19:49:09.580Z,26.93
2018-09-13T19:51:38.124Z,30.23
2018-09-13T19:54:06.459Z,28.43
2018-09-13T19:56:34.746Z,26.43
2018-09-13T19:59:02.987Z,27.93
2018-09-13T20:01:31.227Z,27.93
2018-09-13T20:03:59.424Z,27.90
2018-09-13T20:06:27.623Z,30.70
2018-09-13T20:08:55.803Z,28.60
2018-09-13T20:11:23.991Z,30.43
2018-09-13T20:13:52.182Z,28.30
2018-09-13T20:16:20.364Z,28.90
2018-09-13T20:18:48.579Z,31.37
2018-09-13T20:21:17.105Z,32.00
2018-09-13T20:23:45.404Z,31.27
2018-09-13T20:26:13.695Z,30.40
2018-09-13T20:28:42.045Z,27.43
2018-09-13T20:31:10.322Z,32.50
2018-09-13T20:33:38.651Z,30.10
2018-09-13T20:36:06.834Z,31.67
2018-09-13T20:38:35.034Z,30.30
2018-09-13T20:41:03.234Z,34.10
2018-09-13T20:43:31.449Z,33.17
2018-09-13T20:45:59.662Z,34.03
2018-09-13T20:48:27.842Z,30.80
2018-09-13T20:50:56.142Z,31.50
2018-09-13T20:53:24.354Z,31.50
2018-09-13T20:55:52.538Z,29.93
2018-09-13T20:58:20.771Z,30.47
2018-09-13T21:00:49.045Z,31.00
2018-09-13T21:03:17.162Z,32.10
2018-09-13T21:05:45.342Z,32.50
2018-09-13T21:08:13.526Z,33.30
2018-09-13T21:10:41.703Z,36.20
2018-09-13T21:13:09.888Z,34.07
2018-09-13T21:15:38.073Z,32.63
2018-09-13T21:18:06.691Z,35.80
2018-09-13T21:20:34.871Z,33.37
2018-09-13T21:23:03.087Z,33.30
2018-09-13T21:25:31.275Z,33.90
2018-09-13T21:27:59.448Z,34.13
2018-09-13T21:30:27.635Z,33.90
2018-09-13T21:32:55.906Z,32.90
2018-09-13T21:35:24.048Z,34.10
2018-09-13T21:37:52.235Z,34.53
2018-09-13T21:40:20.674Z,36.47
2018-09-13T21:42:48.843Z,34.47
2018-09-13T21:45:17.025Z,34.40
2018-09-13T21:47:45.202Z,33.53
2018-09-13T21:50:13.383Z,32.80
2018-09-13T21:52:41.575Z,31.83
2018-09-13T21:55:09.752Z,32.80
2018-09-13T21:57:38.004Z,37.83
2018-09-13T22:00:08.676Z,37.97
2018-09-13T22:02:37.377Z,38.90
2018-09-13T22:05:05.827Z,40.30
2018-09-13T22:07:34.008Z,41.40
2018-09-13T22:10:02.203Z,40.50
2018-09-13T22:12:30.404Z,39.33
2018-09-13T22:14:58.578Z,38.60
2018-09-13T22:17:26.764Z,39.53
2018-09-13T22:19:55.010Z,37.97
2018-09-13T22:22:23.203Z,39.47
2018-09-13T22:24:51.383Z,39.90
2018-09-13T22:27:19.559Z,37.73
2018-09-13T22:29:47.744Z,36.63
2018-09-13T22:32:15.965Z,34.43
2018-09-13T22:34:44.139Z,35.90
2018-09-13T22:37:12.335Z,40.60
2018-09-13T22:39:40.679Z,38.27
2018-09-13T22:42:08.909Z,36.70
2018-09-13T22:44:42.352Z,37.13
2018-09-13T22:47:11.380Z,37.33
2018-09-13T22:49:40.030Z,37.23
2018-09-13T22:52:08.616Z,35.47
2018-09-13T22:54:36.908Z,36.30
2018-09-13T22:57:06.391Z,36.90
2018-09-13T22:59:34.570Z,35.80
2018-09-13T23:02:02.747Z,33.60
2018-09-13T23:04:30.927Z,33.57
2018-09-13T23:06:59.143Z,34.03
2018-09-13T23:09:27.332Z,34.27
2018-09-13T23:11:55.504Z,34.37
2018-09-13T23:14:23.690Z,34.50
2018-09-13T23:16:51.878Z,36.80
2018-09-13T23:19:20.048Z,36.43
2018-09-13T23:21:48.244Z,36.57
2018-09-13T23:24:16.425Z,37.93
2018-09-13T23:26:44.639Z,37.03
2018-09-13T23:29:12.814Z,39.27
2018-09-13T23:31:41.018Z,38.87
2018-09-13T23:34:09.192Z,39.73
2018-09-13T23:36:37.372Z,40.67
2018-09-13T23:39:08.421Z,42.00
2018-09-13T23:41:36.515Z,42.90
2018-09-13T23:44:04.698Z,41.87
2018-09-13T23:46:32.870Z,42.43
2018-09-13T23:49:01.070Z,42.50
2018-09-13T23:51:29.245Z,41.27
2018-09-13T23:53:57.423Z,42.37
2018-09-13T23:56:25.594Z,46.23
2018-09-13T23:58:53.770Z,43.60
